For water level readings from Victoria harbour, visit our Tides page.

DISCLAIMER: Although GVHA takes care to produce accurate readings from Ogden Point, the weather information on this site is raw data fed directly from sensors. It does not go through the same quality control processes used by professional weather services, and should not be relied on as a sole source of weather information for Victoria harbour.

In-depth weather values from Victoria Harbour can be found on the Environment Canada website.

Location: Ogden Point Breakwater

Current time: Nov 13, 2019 11:47 PM GMT | Nov 13, 2019 3:47 PM

Last Hour Last 3 Hours Last 6 Hours Last 12 Hours
Time Peak Wind Speed Avg Speed Avg Direction Avg Air Temp Avg Dew Point Avg Humidity
Nov 13, 2019 03:40 PM 11.4 knots 8.9 knots 11° True 10.7° C / 51.4° F 7.3° C / 44.6° F 79.4%
Nov 13, 2019 03:30 PM 11.3 knots 9.2 knots 8° True 10.8° C / 51.6° F 7.3° C / 44.6° F 79%
Nov 13, 2019 03:20 PM 10.3 knots 8.5 knots 11° True 10.7° C / 51.4° F 7.3° C / 44.6° F 79.2%
Nov 13, 2019 03:10 PM 10.2 knots 8.3 knots 11° True 10.7° C / 51.4° F 7.2° C / 44.4° F 79.3%
Nov 13, 2019 03:00 PM 12.5 knots 9.8 knots 9° True 10.5° C / 51° F 7.1° C / 44.2° F 79.2%
Nov 13, 2019 02:50 PM 12.1 knots 10.1 knots 12° True 10.6° C / 51.2° F 7.3° C / 44.6° F 79.8%
Nov 13, 2019 02:40 PM 12.1 knots 9.2 knots 4° True 10.5° C / 51° F 7.2° C / 44.4° F 79.9%
Nov 13, 2019 02:30 PM 11.2 knots 8.9 knots 2° True 10.5° C / 51° F 7.3° C / 44.6° F 80.4%
Nov 13, 2019 02:20 PM 10.5 knots 8.6 knots 352° True 10.5° C / 51° F 7.4° C / 44.8° F 81%
Nov 13, 2019 02:10 PM 10.2 knots 8.4 knots 341° True 10.5° C / 51° F 7.5° C / 45° F 81.5%
Nov 13, 2019 02:00 PM 11.2 knots 8.7 knots 9° True 10.3° C / 50.6° F 7.3° C / 44.6° F 81.4%
Nov 13, 2019 01:50 PM 13.2 knots 11 knots 8° True 10.2° C / 50.4° F 7.4° C / 44.8° F 82.5%
Nov 13, 2019 01:40 PM 12 knots 10 knots 349° True 10.2° C / 50.4° F 7.5° C / 45° F 83.2%
Nov 13, 2019 01:30 PM 10.9 knots 8.5 knots 345° True 10.2° C / 50.4° F 7.8° C / 45.6° F 84.6%
Nov 13, 2019 01:20 PM 12.4 knots 9.5 knots 358° True 10.1° C / 50.2° F 7.8° C / 45.6° F 85.9%
Nov 13, 2019 01:10 PM 13.3 knots 10.3 knots 359° True 10° C / 50° F 7.9° C / 45.8° F 87%
Nov 13, 2019 01:00 PM 12.9 knots 10.2 knots 3° True 9.9° C / 49.8° F 7.9° C / 45.8° F 87.1%
Nov 13, 2019 12:50 PM 13.3 knots 9.9 knots 9° True 9.9° C / 49.8° F 7.9° C / 45.8° F 87.7%
Nov 13, 2019 12:40 PM 14.9 knots 10.9 knots 6° True 9.8° C / 49.6° F 8° C / 46° F 88.8%
Nov 13, 2019 12:30 PM 14.7 knots 11.4 knots 1° True 9.8° C / 49.6° F 8.1° C / 46.2° F 89.7%
Nov 13, 2019 12:20 PM 14.9 knots 11.8 knots 7° True 9.7° C / 49.4° F 8.1° C / 46.2° F 89.9%
Nov 13, 2019 12:10 PM 16 knots 13.3 knots 2° True 9.7° C / 49.4° F 8.1° C / 46.2° F 90%
Nov 13, 2019 12:00 PM 16 knots 13.3 knots 8° True 9.6° C / 49.2° F 8.1° C / 46.2° F 90.2%
Nov 13, 2019 11:50 AM 15.6 knots 11.9 knots 6° True 9.6° C / 49.2° F 8.2° C / 46.4° F 90.6%
Nov 13, 2019 11:40 AM 13 knots 10.4 knots 4° True 9.7° C / 49.4° F 8.2° C / 46.4° F 90.6%
Nov 13, 2019 11:30 AM 11.8 knots 9.2 knots 4° True 9.6° C / 49.2° F 8.1° C / 46.2° F 90.3%
Nov 13, 2019 11:20 AM 11.6 knots 9.4 knots 8° True 9.6° C / 49.2° F 8.2° C / 46.4° F 90.8%
Nov 13, 2019 11:10 AM 9.6 knots 8.2 knots 4° True 9.6° C / 49.2° F 8.2° C / 46.4° F 90.9%
Nov 13, 2019 11:00 AM 11.2 knots 9.4 knots 4° True 9.6° C / 49.2° F 8.1° C / 46.2° F 90.6%
Nov 13, 2019 10:50 AM 11.9 knots 10 knots 10° True 9.5° C / 49° F 8° C / 46° F 90.5%
Nov 13, 2019 10:40 AM 12.6 knots 9.8 knots 7° True 9.5° C / 49° F 8° C / 46° F 90.7%
Nov 13, 2019 10:30 AM 12.1 knots 10.1 knots 7° True 9.5° C / 49° F 8° C / 46° F 90.8%
Nov 13, 2019 10:20 AM 12.5 knots 10.1 knots 7° True 9.4° C / 48.8° F 8° C / 46° F 91.1%
Nov 13, 2019 10:10 AM 12.2 knots 8.9 knots 10° True 9.4° C / 48.8° F 8.1° C / 46.2° F 91.4%
Nov 13, 2019 10:00 AM 10.5 knots 8.3 knots 7° True 9.4° C / 48.8° F 8.1° C / 46.2° F 91.8%
Nov 13, 2019 09:50 AM 12.1 knots 8 knots 359° True 9.3° C / 48.6° F 8.1° C / 46.2° F 92.3%
Nov 13, 2019 09:40 AM 11.5 knots 9.1 knots 351° True 9.3° C / 48.6° F 8.1° C / 46.2° F 92.5%
Nov 13, 2019 09:30 AM 9.2 knots 7.1 knots 8° True 9.2° C / 48.4° F 8.1° C / 46.2° F 92.6%
Nov 13, 2019 09:20 AM 9.2 knots 7 knots 10° True 9.2° C / 48.4° F 8.1° C / 46.2° F 92.8%
Nov 13, 2019 09:10 AM 7.3 knots 5.7 knots 8° True 9° C / 48° F 8° C / 46° F 93.1%
Nov 13, 2019 09:00 AM 8.2 knots 6.6 knots 10° True 8.9° C / 47.8° F 7.9° C / 45.8° F 93.2%
Nov 13, 2019 08:50 AM 8.2 knots 6.1 knots 4° True 8.8° C / 47.6° F 7.8° C / 45.6° F 93.4%
Nov 13, 2019 08:40 AM 6.8 knots 5.6 knots 10° True 8.7° C / 47.4° F 7.8° C / 45.6° F 93.6%
Nov 13, 2019 08:30 AM 5.7 knots 4.4 knots 331° True 8.7° C / 47.4° F 7.8° C / 45.6° F 93.7%
Nov 13, 2019 08:20 AM 3.9 knots 3.3 knots 305° True 8.6° C / 47.2° F 7.7° C / 45.4° F 93.9%
Nov 13, 2019 08:10 AM 3.4 knots 2.8 knots 307° True 8.5° C / 47° F 7.6° C / 45.2° F 94.2%
Nov 13, 2019 08:00 AM 3.4 knots 2.6 knots 309° True 8.5° C / 47° F 7.6° C / 45.2° F 94.2%
Nov 13, 2019 07:50 AM 3.8 knots 3.1 knots 334° True 8.6° C / 47.2° F 7.7° C / 45.4° F 94.3%
Nov 13, 2019 07:40 AM 4.7 knots 2.9 knots 6° True 8.5° C / 47° F 7.7° C / 45.4° F 94.4%
Nov 13, 2019 07:30 AM 4 knots 2.7 knots 3° True 8.5° C / 47° F 7.6° C / 45.2° F 94.3%
Nov 13, 2019 07:20 AM 6 knots 4.1 knots 351° True 8.5° C / 47° F 7.6° C / 45.2° F 94.2%
Nov 13, 2019 07:10 AM 6.5 knots 4.9 knots 2° True 8.5° C / 47° F 7.6° C / 45.2° F 94.2%
Nov 13, 2019 07:00 AM 7.4 knots 5.8 knots 11° True 8.5° C / 47° F 7.6° C / 45.2° F 94.6%
Nov 13, 2019 06:50 AM 7.2 knots 5.8 knots 11° True 8.4° C / 46.8° F 7.7° C / 45.4° F 95.2%
Nov 13, 2019 06:40 AM 6.7 knots 5 knots 12° True 8.3° C / 46.6° F 7.6° C / 45.2° F 95.3%
Nov 13, 2019 06:30 AM 7.2 knots 6.2 knots 354° True 8.3° C / 46.6° F 7.5° C / 45° F 95%
Nov 13, 2019 06:20 AM 7 knots 5.9 knots 340° True 8.4° C / 46.8° F 7.6° C / 45.2° F 94.8%
Nov 13, 2019 06:10 AM 5.8 knots 4.7 knots 5° True 8.4° C / 46.8° F 7.6° C / 45.2° F 94.6%
Nov 13, 2019 06:00 AM 5.5 knots 5 knots 342° True 8.4° C / 46.8° F 7.6° C / 45.2° F 94.8%
Nov 13, 2019 05:50 AM 4.2 knots 3.6 knots 342° True 8.4° C / 46.8° F 7.7° C / 45.4° F 94.8%
Nov 13, 2019 05:40 AM 3.1 knots 2.2 knots 344° True 8.5° C / 47° F 7.7° C / 45.4° F 94.8%
Nov 13, 2019 05:30 AM 3.3 knots 2.4 knots 11° True 8.4° C / 46.8° F 7.6° C / 45.2° F 94.7%
Nov 13, 2019 05:20 AM 3.6 knots 2.8 knots 11° True 8.6° C / 47.2° F 7.7° C / 45.4° F 94.4%
Nov 13, 2019 05:10 AM 3.1 knots 1.8 knots 7° True 8.6° C / 47.2° F 7.7° C / 45.4° F 94.2%
Nov 13, 2019 05:00 AM 1 knots 0.4 knots 62° True 8.6° C / 47.2° F 7.7° C / 45.4° F 94%
Nov 13, 2019 04:50 AM 1.7 knots 0.8 knots 344° True 8.6° C / 47.2° F 7.7° C / 45.4° F 93.9%
Nov 13, 2019 04:40 AM 2.1 knots 1.2 knots 288° True 8.7° C / 47.4° F 7.7° C / 45.4° F 93.8%
Nov 13, 2019 04:30 AM 3.3 knots 2.2 knots 317° True 8.7° C / 47.4° F 7.8° C / 45.6° F 93.5%
Nov 13, 2019 04:20 AM 5 knots 3.8 knots 345° True 8.9° C / 47.8° F 7.8° C / 45.6° F 92.9%
Nov 13, 2019 04:10 AM 6.6 knots 4.8 knots 359° True 9° C / 48° F 7.7° C / 45.4° F 91.9%
Nov 13, 2019 04:00 AM 6.9 knots 5.2 knots 358° True 9.1° C / 48.2° F 7.6° C / 45.2° F 90.4%
Nov 13, 2019 03:50 AM 7.7 knots 4.4 knots 4° True 9.1° C / 48.2° F 7.5° C / 45° F 89.9%